Station VDXA2 - Valdez, AK Image indicating link to RSS feed of recent meteorological observations for station VDXA2


Conditions at VDXA2 as of
(10:24 am AKDT)
1824 GMT on 04/13/2024:
     

Click on the graph icon in the table below to see a time series plot of the last five days of that observation.

5-day plot - Wind Direction Wind Direction (WDIR): SE ( 130 deg true )
5-day plot - Wind Speed Wind Speed (WSPD): 2 kts
5-day plot - Wind Gust Wind Gust (GST): 4 kts
5-day plot - Air Temperature Air Temperature (ATMP): 36.7 °F
5-day plot - Dew Point Dew Point (DEWP): 34.0 °F
5-day plot - Wind Speed at 10 Meters Wind Speed at 10 meters (WSPD10M): 2 kts
5-day plot - Wind Speed at 20 Meters Wind Speed at 20 meters (WSPD20M): 2 kts
5-day plot -  Wind Speed, Wind Gust and Atmospheric Pressure Combined plot of Wind Speed, Gust, and Air Pressure
Previous observations
TIME
(AKDT)
5-day plot - Wind Direction
WDIR
 
5-day plot - Wind Speed
WSPD
kts
5-day plot - Wind Gust
GST
kts
5-day plot - Wave Height
WVHT
ft
5-day plot - Dominant Wave Period
DPD
sec
5-day plot - Average Wave Period
APD
sec
5-day plot - Mean Wave Direction
MWD
 
5-day plot - Atmospheric Pressure
PRES
in
5-day plot - Pressure Tendency
PTDY
in
5-day plot - Air Temperature
ATMP
°F
5-day plot - Water Temperature
WTMP
°F
5-day plot - Dew Point
DEWP
°F
5-day plot - Salinity
SAL
psu
5-day plot - Visibility
VIS
nmi
5-day plot - Tide (above MLLW)
TIDE
ft
2024-04-13 10:14 amESE 2 4------ 36.1- 33.8---
2024-04-13 10:04 amESE 2 5------ 36.5- 33.8---
2024-04-13 09:54 amESE 2 4------ 36.3- 34.0---
2024-04-13 09:44 amESE 2 4------ 36.5- 33.8---
2024-04-13 09:34 am- 0 2------ 37.4- 34.5---
2024-04-13 09:24 am- 0 2------ 36.5- 33.8---
2024-04-13 09:15 am NW 1 2------ 36.7- 33.6---
2024-04-13 09:04 am- 0 2------ 36.1- 34.2---
2024-04-13 08:55 am S 2 4------ 34.7- 33.1---
2024-04-13 08:45 amWSW 1 3------ 34.0- 32.9---
2024-04-13 08:35 amWNW 2 3------ 33.3- 32.4---
2024-04-13 08:25 am NW 2 2------ 32.9- 32.2---
2024-04-13 08:15 amNNW 2 2------ 32.7- 32.2---
2024-04-13 08:05 am NW 1 3------ 33.1- 32.5---
2024-04-13 07:55 am- 0 2------ 33.3- 32.7---
2024-04-13 07:45 am- 0 2------ 32.7- 32.5---
2024-04-13 07:34 am W 2 3------ 32.5- 32.4---
2024-04-13 07:24 am W 2 3------ 32.4- 32.2---
2024-04-13 07:15 am W 2 3------ 32.5- 32.4---
2024-04-13 07:04 amNNW 2 3------ 32.4- 32.2---
2024-04-13 06:54 am S 2 4------ 32.7- 32.5---
2024-04-13 06:44 am S 3 4------ 32.9- 32.7---
2024-04-13 06:34 am- 0 2------ 32.9- 32.7---
2024-04-13 06:24 am- 0 1------ 33.1- 32.9---
2024-04-13 06:14 am- 0 2------ 32.7- 32.5---
2024-04-13 06:04 amNNW 2 3------ 32.9- 32.5---
2024-04-13 05:55 am- 0 2------ 32.9- 32.4---
2024-04-13 05:45 am- 0 1------ 32.9- 32.4---
2024-04-13 05:34 am N 1 2------ 33.1- 32.5---
2024-04-13 05:24 am- 0 2------ 33.3- 32.5---
2024-04-13 05:14 am NE 1 3------ 33.4- 32.7---
2024-04-13 05:04 am E 1 3------ 33.4- 32.5---
2024-04-13 04:54 am E 2 3------ 33.4- 32.4---
2024-04-13 04:44 am- 0 2------ 33.3- 32.2---
2024-04-13 04:34 am- 0 1------ 33.1- 32.2---
2024-04-13 04:25 am W 2 3------ 33.1- 32.4---
2024-04-13 04:14 am NW 1 2------ 33.1- 32.4---
2024-04-13 04:04 am- 0 1------ 32.9- 32.2---
2024-04-13 03:54 amNNW 2 3------ 32.9- 32.2---
2024-04-13 03:44 am N 2 4------ 33.1- 32.5---
2024-04-13 03:34 am N 2 4------ 33.1- 32.5---
2024-04-13 03:25 amNNE 2 4------ 33.1- 32.7---
2024-04-13 03:14 am N 2 4------ 32.9- 32.7---
2024-04-13 03:04 am N 2 3------ 32.9- 32.7---
2024-04-13 02:55 amNNW 2 3------ 32.9- 32.4---
2024-04-13 02:45 amNNW 1 3------ 32.9- 32.4---
2024-04-13 02:34 amNNW 1 2------ 33.1- 32.5---
2024-04-13 02:25 amNNW 1 2------ 32.9- 32.7---
2024-04-13 02:15 amNNW 2 2------ 32.9- 32.7---
2024-04-13 02:04 am NW 2 3------ 32.7- 32.5---
2024-04-13 01:55 amNNW 1 2------ 32.9- 32.7---
2024-04-13 01:44 amWNW 1 3------ 32.7- 32.5---
2024-04-13 01:34 amNNW 2 2------ 32.9- 32.4---
2024-04-13 01:24 am N 2 3------ 33.1- 32.7---
2024-04-13 01:05 am N 2 3------ 32.9- 32.7---
2024-04-13 12:54 am N 2 4------ 32.9- 32.5---
2024-04-13 12:44 am N 2 4------ 32.9- 32.4---
2024-04-13 12:34 am N 2 5------ 32.9- 32.4---
2024-04-13 12:24 am N 2 5------ 32.9- 32.4---
2024-04-13 12:16 am N 2 6------ 32.9- 32.4---
2024-04-13 12:05 amNNE 2 4------ 33.1- 32.4---
2024-04-12 11:55 pm N 3 4------ 33.1- 32.4---
2024-04-12 11:45 pm N 3 4------ 33.1- 32.4---
2024-04-12 11:35 pmNNE 3 4------ 33.1- 32.4---
2024-04-12 11:24 pmNNE 3 5------ 33.1- 32.4---
2024-04-12 11:14 pmNNE 3 5------ 33.1- 32.4---
2024-04-12 11:04 pmNNE 3 6------ 32.9- 32.2---
2024-04-12 10:54 pmNNE 4 6------ 33.1- 32.4---
2024-04-12 10:44 pmNNE 3 6------ 32.9- 32.2---
2024-04-12 10:34 pm NE 4 6------ 33.1- 32.4---
2024-04-12 10:24 pm NE 4 6------ 33.1- 32.4---
2024-04-12 10:14 pm NE 4 7------ 33.1- 32.4---
2024-04-12 10:05 pmNNE 4 8------ 33.1- 32.4---
2024-04-12 09:54 pmNNE 4 7------ 33.3- 32.5---
2024-04-12 09:44 pm NE 3 5------ 33.3- 32.5---
2024-04-12 09:34 pm NE 3 5------ 33.4- 32.7---
2024-04-12 09:24 pm NE 3 5------ 33.4- 32.7---
2024-04-12 09:15 pm NE 2 4------ 33.4- 32.7---
2024-04-12 09:05 pmENE 2 3------ 33.4- 32.7---
2024-04-12 08:54 pm NE 2 4------ 33.6- 32.7---
2024-04-12 08:45 pmENE 2 3------ 33.8- 32.7---
2024-04-12 08:35 pm NE 2 3------ 33.8- 32.7---
2024-04-12 08:25 pm NE 2 4------ 33.8- 32.5---
2024-04-12 08:14 pmNNE 2 4------ 34.0- 32.5---
2024-04-12 08:05 pm NE 2 4------ 34.0- 32.4---
2024-04-12 07:54 pm NE 2 4------ 34.3- 32.5---
2024-04-12 07:45 pmENE 2 4------ 34.9- 32.7---
2024-04-12 07:35 pm E 2 3------ 35.4- 32.9---
2024-04-12 07:24 pm SW 1 2------ 35.4- 32.9---
2024-04-12 07:15 pmSSW 2 3------ 35.8- 32.9---
2024-04-12 07:05 pmSSW 1 2------ 36.0- 32.7---
2024-04-12 06:54 pmSSW 2 3------ 36.1- 32.7---
2024-04-12 06:45 pmSSE 1 3------ 36.3- 32.5---
2024-04-12 06:34 pm- 0 2------ 36.3- 32.5---
2024-04-12 06:24 pm W 2 4------ 35.6- 32.2---
2024-04-12 06:14 pmWSW 3 5------ 35.6- 32.2---
2024-04-12 06:05 pmWNW 3 5------ 35.2- 32.0---
2024-04-12 05:55 pmWNW 3 5------ 35.1- 32.0---
2024-04-12 05:45 pmWNW 3 5------ 35.2- 32.0---
2024-04-12 05:35 pm NW 2 4------ 36.0- 32.5---
2024-04-12 05:24 pmWNW 2 3------ 36.0- 32.5---
2024-04-12 05:15 pmWNW 2 3------ 36.0- 32.7---
2024-04-12 05:04 pmNNW 1 2------ 36.5- 33.3---
2024-04-12 04:54 pmNNW 1 3------ 36.0- 33.1---
2024-04-12 04:34 pm- 0 2------ 36.7- 33.4---
2024-04-12 04:24 pm NW 1 2------ 37.0- 33.4---
2024-04-12 04:14 pmNNE 1 3------ 36.9- 33.6---
2024-04-12 03:55 pmNNE 2 4------ 35.2- 32.7---
2024-04-12 03:44 pm NE 3 5------ 34.9- 32.4---
2024-04-12 03:34 pmNNE 3 5------ 34.9- 32.0---
2024-04-12 03:25 pm NE 3 5------ 34.9- 32.2---
2024-04-12 03:14 pmNNE 3 5------ 34.7- 31.8---
2024-04-12 03:04 pm NE 3 6------ 34.7- 31.5---
2024-04-12 02:55 pm NE 3 7------ 35.2- 31.6---
2024-04-12 02:45 pmNNE 2 6------ 35.4- 31.6---
2024-04-12 02:35 pm NE 3 5------ 35.1- 31.6---
2024-04-12 02:25 pmNNE 3 5------ 35.1- 31.6---
2024-04-12 02:14 pm NE 3 7------ 34.9- 31.6---
2024-04-12 02:04 pmNNE 2 4------ 35.1- 31.8---
2024-04-12 01:54 pmNNE 3 5------ 35.1- 31.8---
2024-04-12 01:44 pm NE 3 5------ 34.7- 31.6---
2024-04-12 01:34 pm N 2 4------ 34.3- 31.5---
2024-04-12 01:24 pmNNW 3 5------ 33.4- 30.6---
2024-04-12 01:05 pm N 2 4------ 34.5- 31.5---
2024-04-12 12:54 pm N 1 3------ 34.3- 31.3---
2024-04-12 12:44 pm NE 2 4------ 33.8- 30.7---
2024-04-12 12:34 pm NE 2 4------ 33.8- 30.7---
2024-04-12 12:24 pmNNE 2 5------ 33.4- 30.7---
2024-04-12 12:14 pm NE 3 6------ 33.1- 30.4---
2024-04-12 12:05 pm NE 3 6------ 33.3- 30.7---
2024-04-12 11:55 am NE 3 6------ 33.3- 30.6---
2024-04-12 11:45 amENE 3 5------ 33.3- 30.7---
2024-04-12 11:35 am NE 3 5------ 33.1- 30.4---
2024-04-12 11:25 amENE 3 5------ 32.9- 30.2---
2024-04-12 11:15 am NE 3 5------ 32.9- 30.2---
2024-04-12 11:04 amENE 3 6------ 32.5- 30.0---
2024-04-12 10:55 am NE 3 6------ 32.5- 30.0---
2024-04-12 10:44 am NE 3 5------ 32.5- 29.8---
2024-04-12 10:35 am NE 2 4------ 32.7- 30.0---
2024-04-12 10:24 am NE 3 5------ 32.5- 29.8---
2024-04-12 10:14 am NE 2 5------ 32.7- 29.8---
2024-04-12 10:05 am NE 3 6------ 32.5- 29.7---
2024-04-12 09:54 am N 2 3------ 32.5- 30.0---